createdAt,value
2019-02-09T00:01:44.046Z,22.63
2019-02-09T00:04:13.874Z,21.83
2019-02-09T00:06:43.478Z,19.47
2019-02-09T00:09:13.422Z,19.47
2019-02-09T00:11:42.953Z,17.97
2019-02-09T00:14:12.385Z,17.67
2019-02-09T00:16:41.780Z,18.87
2019-02-09T00:19:11.343Z,17.30
2019-02-09T00:21:41.099Z,19.37
2019-02-09T00:24:10.935Z,21.17
2019-02-09T00:26:40.638Z,19.27
2019-02-09T00:29:10.130Z,18.83
2019-02-09T00:31:40.055Z,18.63
2019-02-09T00:34:09.499Z,20.13
2019-02-09T00:36:39.314Z,19.17
2019-02-09T00:39:09.505Z,17.83
2019-02-09T00:41:39.149Z,18.50
2019-02-09T00:44:08.741Z,18.47
2019-02-09T00:46:38.431Z,19.83
2019-02-09T00:49:08.251Z,19.80
2019-02-09T00:51:37.849Z,19.47
2019-02-09T00:54:07.661Z,18.90
2019-02-09T00:56:37.304Z,16.83
2019-02-09T00:59:07.073Z,16.23
2019-02-09T01:01:36.723Z,17.10
2019-02-09T01:04:06.718Z,16.93
2019-02-09T01:06:36.585Z,16.83
2019-02-09T01:09:13.328Z,17.33
2019-02-09T01:11:42.905Z,17.97
2019-02-09T01:14:12.800Z,18.40
2019-02-09T01:16:42.398Z,19.60
2019-02-09T01:19:11.970Z,19.73
2019-02-09T01:21:41.559Z,18.93
2019-02-09T01:24:11.113Z,19.27
2019-02-09T01:26:40.534Z,20.03
2019-02-09T01:29:10.346Z,20.57
2019-02-09T01:31:39.841Z,20.33
2019-02-09T01:34:09.555Z,20.83
2019-02-09T01:36:38.955Z,21.27
2019-02-09T01:39:09.109Z,22.00
2019-02-09T01:41:39.055Z,23.63
2019-02-09T01:44:08.907Z,23.80
2019-02-09T01:46:38.610Z,22.20
2019-02-09T01:49:08.350Z,24.13
2019-02-09T01:51:38.032Z,23.83
2019-02-09T01:54:07.517Z,22.40
2019-02-09T01:56:37.410Z,22.73
2019-02-09T01:59:06.847Z,23.07
2019-02-09T02:01:36.666Z,24.07
2019-02-09T02:04:06.208Z,23.70
2019-02-09T02:06:35.949Z,21.27
2019-02-09T02:09:08.181Z,20.40
2019-02-09T02:11:37.675Z,20.97
2019-02-09T02:14:07.437Z,22.23
2019-02-09T02:16:37.298Z,21.53
2019-02-09T02:19:07.292Z,21.00
2019-02-09T02:21:37.102Z,20.23
2019-02-09T02:24:06.871Z,19.07
2019-02-09T02:26:36.786Z,19.50
2019-02-09T02:29:06.633Z,19.67
2019-02-09T02:31:36.270Z,20.30
2019-02-09T02:34:06.056Z,19.53
2019-02-09T02:36:35.686Z,21.23
2019-02-09T02:39:09.563Z,19.73
2019-02-09T02:41:39.053Z,20.97
2019-02-09T02:44:08.782Z,21.17
2019-02-09T02:46:38.486Z,21.60
2019-02-09T02:49:08.266Z,22.37
2019-02-09T02:51:38.236Z,21.80
2019-02-09T02:54:08.022Z,22.37
2019-02-09T02:56:37.413Z,22.33
2019-02-09T02:59:07.245Z,22.03
2019-02-09T03:01:37.164Z,22.77
2019-02-09T03:04:06.940Z,22.37
2019-02-09T03:06:36.329Z,22.47
2019-02-09T03:09:08.742Z,23.23
2019-02-09T03:11:38.434Z,22.47
2019-02-09T03:14:08.576Z,23.40
2019-02-09T03:16:38.057Z,23.93
2019-02-09T03:19:07.783Z,23.40
2019-02-09T03:21:37.392Z,24.10
2019-02-09T03:24:07.213Z,22.07
2019-02-09T03:26:37.123Z,22.40
2019-02-09T03:29:06.821Z,23.70
2019-02-09T03:31:36.528Z,24.17
2019-02-09T03:34:06.076Z,23.97
2019-02-09T03:36:35.563Z,24.47
2019-02-09T03:39:08.048Z,25.27
2019-02-09T03:41:37.618Z,24.83
2019-02-09T03:44:07.444Z,25.67
2019-02-09T03:46:37.278Z,25.67
2019-02-09T03:49:07.052Z,25.33
2019-02-09T03:51:36.866Z,25.40
2019-02-09T03:54:06.280Z,25.30
2019-02-09T03:56:35.964Z,26.00
2019-02-09T03:59:05.865Z,24.67
2019-02-09T04:01:35.762Z,25.00
2019-02-09T04:04:05.541Z,24.53
2019-02-09T04:06:35.032Z,24.83
2019-02-09T04:09:07.455Z,25.07
2019-02-09T04:11:37.279Z,23.87
2019-02-09T04:14:06.701Z,25.07
2019-02-09T04:16:36.451Z,24.77
2019-02-09T04:19:05.890Z,24.23
2019-02-09T04:21:35.637Z,24.60
2019-02-09T04:24:05.529Z,24.20
2019-02-09T04:26:35.154Z,25.03
2019-02-09T04:29:04.837Z,24.67
2019-02-09T04:31:34.422Z,26.67
2019-02-09T04:34:03.852Z,26.37
2019-02-09T04:36:33.249Z,26.50
2019-02-09T04:39:03.106Z,24.50
2019-02-09T04:41:32.850Z,25.97
2019-02-09T04:44:02.286Z,25.07
2019-02-09T04:46:31.670Z,25.03
2019-02-09T04:49:01.336Z,25.37
2019-02-09T04:51:30.816Z,25.33
2019-02-09T04:54:00.251Z,25.87
2019-02-09T04:56:29.646Z,25.80
2019-02-09T04:58:59.293Z,25.83
2019-02-09T05:01:29.142Z,25.37
2019-02-09T05:03:58.955Z,26.57
2019-02-09T05:06:28.661Z,25.97
2019-02-09T05:08:58.418Z,26.30
2019-02-09T05:11:27.941Z,25.80
2019-02-09T05:13:57.374Z,27.43
2019-02-09T05:16:27.109Z,24.97
2019-02-09T05:18:56.888Z,24.77
2019-02-09T05:21:26.631Z,26.07
2019-02-09T05:23:56.423Z,25.70
2019-02-09T05:26:25.927Z,26.90
2019-02-09T05:28:55.627Z,25.30
2019-02-09T05:31:25.023Z,25.33
2019-02-09T05:33:54.872Z,25.73
2019-02-09T05:36:24.754Z,24.60
2019-02-09T05:38:54.209Z,25.50
2019-02-09T05:41:23.730Z,25.13
2019-02-09T05:43:53.384Z,24.77
2019-02-09T05:46:23.195Z,26.23
2019-02-09T05:48:52.927Z,26.07
2019-02-09T05:51:22.370Z,26.80
2019-02-09T05:53:52.103Z,25.67
2019-02-09T05:56:21.706Z,33.87
2019-02-09T05:58:51.475Z,30.90
2019-02-09T06:01:20.962Z,33.23
2019-02-09T06:03:50.398Z,35.67
2019-02-09T06:06:19.847Z,40.83
2019-02-09T06:08:49.450Z,29.10
2019-02-09T06:11:19.349Z,25.80
2019-02-09T06:13:48.941Z,23.30
2019-02-09T06:16:18.532Z,25.63
2019-02-09T06:18:48.421Z,25.03
2019-02-09T06:21:18.287Z,29.80
2019-02-09T06:23:47.976Z,26.97
2019-02-09T06:26:17.712Z,26.87
2019-02-09T06:28:47.513Z,36.43
2019-02-09T06:31:17.361Z,28.67
2019-02-09T06:33:47.068Z,27.80
2019-02-09T06:36:16.548Z,26.70
2019-02-09T06:38:46.204Z,25.43
2019-02-09T06:41:15.858Z,25.10
2019-02-09T06:43:45.583Z,32.17
2019-02-09T06:46:16.361Z,32.53
2019-02-09T06:48:45.797Z,30.40
2019-02-09T06:51:15.501Z,31.97
2019-02-09T06:53:44.981Z,32.00
2019-02-09T06:56:14.468Z,28.53
2019-02-09T06:58:43.928Z,33.27
2019-02-09T07:01:13.304Z,27.93
2019-02-09T07:03:43.040Z,28.07
2019-02-09T07:06:12.676Z,26.13
2019-02-09T07:08:42.228Z,30.93
2019-02-09T07:11:11.967Z,27.80
2019-02-09T07:13:41.644Z,25.20
2019-02-09T07:16:11.276Z,28.83
2019-02-09T07:18:41.040Z,40.10
2019-02-09T07:21:10.858Z,34.57
2019-02-09T07:23:40.253Z,32.57
2019-02-09T07:26:09.635Z,33.17
2019-02-09T07:28:39.129Z,43.13
2019-02-09T07:31:08.925Z,33.53
2019-02-09T07:33:38.322Z,37.53
2019-02-09T07:36:07.822Z,32.23
2019-02-09T07:38:37.787Z,30.83
2019-02-09T07:41:07.565Z,31.43
2019-02-09T07:43:37.150Z,30.33
2019-02-09T07:46:06.761Z,30.50
2019-02-09T07:48:36.402Z,33.20
2019-02-09T07:51:06.265Z,37.43
2019-02-09T07:53:35.759Z,31.50
2019-02-09T07:56:06.227Z,30.53
2019-02-09T07:58:35.605Z,34.00
2019-02-09T08:01:05.930Z,37.67
2019-02-09T08:03:35.765Z,34.13
2019-02-09T08:06:05.678Z,31.97
2019-02-09T08:08:35.435Z,30.73
2019-02-09T08:11:09.301Z,35.90
2019-02-09T08:13:36.313Z,35.17
2019-02-09T08:16:05.992Z,31.03
2019-02-09T08:18:35.739Z,32.87
2019-02-09T08:21:05.830Z,28.93
2019-02-09T08:23:35.347Z,28.53
2019-02-09T08:26:05.138Z,32.67
2019-02-09T08:28:34.619Z,44.63
2019-02-09T08:31:04.793Z,34.13
2019-02-09T08:33:34.389Z,30.53
2019-02-09T08:36:03.809Z,31.30
2019-02-09T08:38:33.440Z,43.03
2019-02-09T08:41:03.117Z,37.27
2019-02-09T08:43:32.519Z,31.63
2019-02-09T08:46:01.994Z,30.33
2019-02-09T08:48:31.936Z,33.07
2019-02-09T08:51:05.570Z,32.63
2019-02-09T08:53:34.974Z,35.03
2019-02-09T08:56:04.826Z,35.17
2019-02-09T08:58:34.604Z,39.30
2019-02-09T09:01:05.172Z,32.67
2019-02-09T09:03:34.793Z,35.10
2019-02-09T09:06:05.016Z,34.27
2019-02-09T09:08:34.738Z,32.07
2019-02-09T09:11:04.135Z,31.53
2019-02-09T09:13:34.107Z,37.43
2019-02-09T09:16:08.317Z,31.03
2019-02-09T09:18:37.835Z,29.73
2019-02-09T09:21:07.776Z,33.33
2019-02-09T09:23:37.283Z,27.40
2019-02-09T09:26:06.867Z,28.40
2019-02-09T09:28:36.604Z,28.67
2019-02-09T09:31:06.798Z,31.97
2019-02-09T09:33:36.774Z,30.33
2019-02-09T09:36:07.003Z,37.20
2019-02-09T09:38:36.753Z,45.40
2019-02-09T09:41:06.571Z,29.90
2019-02-09T09:43:36.406Z,26.27
2019-02-09T09:46:07.985Z,26.47
2019-02-09T09:48:37.380Z,25.17
2019-02-09T09:51:09.615Z,25.57
2019-02-09T09:53:39.122Z,26.33
2019-02-09T09:56:08.779Z,25.33
2019-02-09T09:58:40.043Z,30.10
2019-02-09T10:01:09.422Z,27.80
2019-02-09T10:03:39.472Z,25.27
2019-02-09T10:06:09.405Z,23.47
2019-02-09T10:08:40.154Z,23.10
2019-02-09T10:11:09.552Z,23.63
2019-02-09T10:13:39.320Z,29.57
2019-02-09T10:16:09.230Z,26.40
2019-02-09T10:18:38.755Z,42.37
2019-02-09T10:21:08.480Z,25.30
2019-02-09T10:23:38.259Z,33.47
2019-02-09T10:26:08.176Z,26.37
2019-02-09T10:28:37.560Z,31.60
2019-02-09T10:31:07.065Z,38.43
2019-02-09T10:33:36.463Z,48.87
2019-02-09T10:36:06.149Z,44.00
2019-02-09T10:38:35.886Z,29.47
2019-02-09T10:41:05.758Z,26.27
2019-02-09T10:43:35.342Z,26.03
2019-02-09T10:46:05.721Z,24.63
2019-02-09T10:48:35.643Z,27.93
2019-02-09T10:51:05.615Z,26.47
2019-02-09T10:53:35.020Z,25.90
2019-02-09T10:56:04.732Z,24.67
2019-02-09T10:58:34.363Z,28.00
2019-02-09T11:01:25.446Z,27.27
2019-02-09T11:03:55.005Z,27.30
2019-02-09T11:06:24.608Z,28.00
2019-02-09T11:08:54.323Z,30.07
2019-02-09T11:11:24.149Z,25.20
2019-02-09T11:13:54.031Z,26.27
2019-02-09T11:16:23.947Z,26.27
2019-02-09T11:18:53.470Z,26.37
2019-02-09T11:21:23.837Z,26.63
2019-02-09T11:23:53.641Z,26.93
2019-02-09T11:26:23.178Z,25.57
2019-02-09T11:28:52.732Z,26.10
2019-02-09T11:31:22.358Z,26.23
2019-02-09T11:33:52.108Z,25.80
2019-02-09T11:36:21.841Z,24.37
2019-02-09T11:38:51.242Z,24.17
2019-02-09T11:41:21.028Z,23.90
2019-02-09T11:43:50.642Z,23.77
2019-02-09T11:46:20.558Z,25.43
2019-02-09T11:48:50.254Z,27.70
2019-02-09T11:51:20.028Z,27.17
2019-02-09T11:53:49.421Z,25.90
2019-02-09T11:56:21.269Z,25.30
2019-02-09T11:58:50.749Z,26.63
2019-02-09T12:01:20.399Z,25.70
2019-02-09T12:03:50.378Z,29.23
2019-02-09T12:06:20.106Z,24.00
2019-02-09T12:08:49.589Z,24.00
2019-02-09T12:11:19.282Z,24.40
2019-02-09T12:13:55.154Z,32.33
2019-02-09T12:16:20.084Z,30.33
2019-02-09T12:18:49.577Z,34.83
2019-02-09T12:21:19.106Z,24.77
2019-02-09T12:23:48.666Z,22.07
2019-02-09T12:26:20.356Z,27.40
2019-02-09T12:28:49.890Z,21.27
2019-02-09T12:31:19.559Z,22.40
2019-02-09T12:33:49.216Z,22.60
